St. Louis Express — WDD3825 — position and weather

sailwx.info

Track history (hours):
 
Tides and Currents Weather Stations Pressure Air Temp Water Temp Dewpoint Dewpoint Depression Visibility Wind Speed Wind Dir Waves Ship Positions

St. Louis Express

Owner: Marine Transport Management, Inc C/O Crowley Ship Management, Jacksonville, FL. More information available from US FCC via Universal Licensing System.

Last reported at 2014-Dec-22 18:00 UTC. Time now 2014-Dec-22 20:37 UTC.
Position N 35°12' W 044°48'.

Type: Ship (hazmat cat D). MMSI: 367136680.

Wind from 290 at 8 knots

Waves 1.0 meters (3 feet), 2 second period

Barometer 1015.0 mb
Air temperature 21.0 ° C
Visibility: greater than 10.8 NM
Dewpoint 16.1 ° C
Water temperature 23.0 ° C

Date/timePositionNaut miles runAvg speedWind from/ knotsBaromVisibWave heightAir tempDewpointWater temp
2014-Dec-22 18:00N 35°12' W 044°48'4019.8 290 / 81015.010.8 1.021.016.123.0
2014-Dec-22 16:00N 35°18' W 044°00'18718.7 280 / 141016.610.8 1.020.016.721.0
2014-Dec-22 06:00N 35°36' W 040°12'44218.0 300 / 121018.510.8 0.520.016.721.0
2014-Dec-21 05:27N 38°11' W 031°34'2220.1
2014-Dec-21 04:23N 38°25' W 031°13'614.0
2014-Dec-21 04:00N 38°24' W 031°06'1529.2 160 / 201030.510.8 1.017.013.519.0
2014-Dec-21 03:28N 38°36' W 030°54'1820.0
2014-Dec-21 02:33N 38°48' W 030°36'2019.9
2014-Dec-21 01:33N 39°00' W 030°16'2019.5
2014-Dec-21 00:33N 39°13' W 029°57'2019.6
2014-Dec-20 23:33N 39°22' W 029°35'2019.9
2014-Dec-20 22:33N 39°32' W 029°12'2020.2
2014-Dec-20 21:33N 39°42' W 028°49'2020.1
2014-Dec-20 20:33N 39°52' W 028°26'2020.3
2014-Dec-20 19:33N 40°02' W 028°04'3824.6
2014-Dec-20 18:00N 40°18' W 027°18'5518.2 090 / 101036.010.8 1.016.012.417.0
2014-Dec-20 15:00N 40°48' W 026°18'21119.2 200 / 151036.510.8 1.017.013.517.0
2014-Dec-20 04:00N 42°24' W 022°06'23718.2 270 / 181034.2 5.4 1.015.015.015.0
2014-Dec-19 15:00N 44°06' W 017°12'1010.5 270 / 221030.0 2.2 1.515.015.015.0
2014-Dec-19 14:00N 44°12' W 017°00'71016.7 270 / 251029.6 5.4 1.515.015.015.0
2014-Dec-17 19:33N 50°14' W 002°01'2319.4
2014-Dec-17 18:23N 50°23' W 001°28'1618.7
2014-Dec-17 17:33N 50°29' W 001°06'1313.5
2014-Dec-17 16:33N 50°41' W 000°57'1414.3
2014-Dec-17 15:34N 50°47' W 001°18'8 8.1
2014-Dec-17 14:33N 50°54' W 001°25'2 2.3
2014-Dec-17 13:32N 50°55' W 001°28'0 0.0
2014-Dec-17 12:32N 50°55' W 001°28'0 0.0
2014-Dec-17 11:32N 50°55' W 001°28'0 0.0
2014-Dec-17 10:32N 50°55' W 001°28'0 0.0
2014-Dec-17 09:32N 50°55' W 001°28'0 0.0
2014-Dec-17 08:32N 50°55' W 001°28'0 0.0
2014-Dec-17 07:32N 50°55' W 001°28'0 0.0
2014-Dec-17 06:32N 50°55' W 001°28'0 0.0
2014-Dec-17 05:32N 50°55' W 001°28'0 0.0
2014-Dec-17 04:32N 50°55' W 001°28'0 0.0
2014-Dec-17 03:32N 50°55' W 001°28'0 0.0
2014-Dec-17 02:32N 50°55' W 001°28'0 0.0
2014-Dec-17 01:32N 50°55' W 001°28'0 0.0
2014-Dec-17 00:32N 50°55' W 001°28'1 0.7
2014-Dec-16 23:33N 50°54' W 001°27'6 6.0
2014-Dec-16 22:33N 50°50' W 001°19'1111.1
2014-Dec-16 21:33N 50°44' W 001°05'9 8.6
2014-Dec-16 20:34N 50°39' W 000°54'1716.5
2014-Dec-16 19:33N 50°34' W 000°29'2121.0
2014-Dec-16 18:33N 50°33' E 000°04'2120.8
2014-Dec-16 17:33N 50°38' E 000°36'2120.6
2014-Dec-16 16:33N 50°48' E 001°04'2121.1
2014-Dec-16 15:33N 51°02' E 001°29'2222.2
2014-Dec-16 14:33N 51°19' E 001°52'2121.4
2014-Dec-16 13:33N 51°37' E 002°12'10019.9
2014-Dec-16 08:33N 52°54' E 003°53'2019.8
2014-Dec-16 07:33N 53°08' E 004°18'2319.9
2014-Dec-16 06:23N 53°28' E 004°37'1720.0
2014-Dec-16 05:33N 53°34' E 005°03'2019.9
2014-Dec-16 04:33N 53°41' E 005°34'2019.5
2014-Dec-16 03:32N 53°48' E 006°06'5718.8
2014-Dec-16 00:31N 53°59' E 007°40'1313.3
2014-Dec-15 23:33N 53°52' E 007°58'1717.2
2014-Dec-15 22:34N 53°41' E 008°21'9 8.6
2014-Dec-15 21:33N 53°35' E 008°32'0 0.0
2014-Dec-15 20:32N 53°35' E 008°32'0 0.0
2014-Dec-15 19:32N 53°35' E 008°32'0 0.0
2014-Dec-15 18:32N 53°35' E 008°32'0 0.0
2014-Dec-15 17:32N 53°35' E 008°32'0 0.0
2014-Dec-15 16:32N 53°35' E 008°32'0 0.0
2014-Dec-15 15:32N 53°35' E 008°32'0 0.0
2014-Dec-15 14:32N 53°35' E 008°32'0 0.0
2014-Dec-15 13:32N 53°35' E 008°32'0 0.0
2014-Dec-15 12:32N 53°35' E 008°32'0 0.0
2014-Dec-15 11:32N 53°35' E 008°32'0 0.0
2014-Dec-15 10:32N 53°35' E 008°32'0 0.0
2014-Dec-15 09:32N 53°35' E 008°32'0 0.0
2014-Dec-15 08:32N 53°35' E 008°32'0 0.0
2014-Dec-15 07:32N 53°35' E 008°32'0 0.0
2014-Dec-15 06:32N 53°35' E 008°32'0 0.0
2014-Dec-15 05:32N 53°35' E 008°32'0 0.0
2014-Dec-15 04:32N 53°35' E 008°32'0 0.0
2014-Dec-15 03:32N 53°35' E 008°32'0 0.1
2014-Dec-15 02:32N 53°35' E 008°32'0 0.1
2014-Dec-15 01:32N 53°35' E 008°32'0 0.0
2014-Dec-15 00:32N 53°35' E 008°32'0 0.0
2014-Dec-14 23:32N 53°35' E 008°32'0 0.0
2014-Dec-14 22:32N 53°35' E 008°32'0 0.0
2014-Dec-14 21:32N 53°35' E 008°32'0 0.0
2014-Dec-14 20:32N 53°35' E 008°32'0 0.0
2014-Dec-14 19:32N 53°35' E 008°32'0 0.0
2014-Dec-14 18:32N 53°35' E 008°32'4 3.8
2014-Dec-14 17:34N 53°38' E 008°27'1615.6
2014-Dec-14 16:33N 53°48' E 008°08'1413.7
2014-Dec-14 15:33N 53°53' E 007°46'2 2.4
2014-Dec-14 14:33N 53°52' E 007°42'4 3.7
2014-Dec-14 13:33N 53°54' E 007°36'2914.6
2014-Dec-14 11:32N 53°48' E 006°48'2121.8
2014-Dec-14 10:33N 53°43' E 006°12'2221.8
2014-Dec-14 09:34N 53°37' E 005°37'2221.8
2014-Dec-14 08:33N 53°29' E 005°03'2120.8
2014-Dec-14 07:33N 53°16' E 004°36'2121.6
2014-Dec-14 06:34N 52°57' E 004°19'2121.1
2014-Dec-14 05:34N 52°40' E 003°59'2121.2
2014-Dec-14 04:33N 52°25' E 003°34'2121.0
2014-Dec-14 03:32N 52°09' E 003°11'1919.2
2014-Dec-14 02:32N 51°50' E 003°05'1413.9
2014-Dec-14 01:33N 51°37' E 003°11'1313.4
2014-Dec-14 00:34N 51°25' E 003°03'1818.0
2014-Dec-13 23:33N 51°25' E 003°32'1111.3
2014-Dec-13 22:34N 51°21' E 003°48'1010.5
2014-Dec-13 21:33N 51°22' E 004°05'7 7.4
2014-Dec-13 20:33N 51°21' E 004°16'0 0.0
2014-Dec-13 19:33N 51°21' E 004°16'0 0.0
2014-Dec-13 18:33N 51°21' E 004°16'0 0.0
2014-Dec-13 17:33N 51°21' E 004°16'0 0.0
2014-Dec-13 16:33N 51°21' E 004°16'0 0.0
2014-Dec-13 15:34N 51°21' E 004°16'0 0.0
2014-Dec-13 14:33N 51°21' E 004°16'0 0.0
2014-Dec-13 13:33N 51°21' E 004°16'0 0.0
2014-Dec-13 12:33N 51°20' E 004°16'0 0.0
2014-Dec-13 11:33N 51°21' E 004°16'0 0.0
2014-Dec-13 10:34N 51°21' E 004°16'0 0.0
2014-Dec-13 09:34N 51°21' E 004°16'0 0.0
2014-Dec-13 08:33N 51°21' E 004°16'0 0.0
2014-Dec-13 07:33N 51°21' E 004°16'0 0.0
2014-Dec-13 06:33N 51°21' E 004°16'0 0.0
2014-Dec-13 05:33N 51°21' E 004°16'0 0.0
2014-Dec-13 04:33N 51°21' E 004°16'0 0.0
2014-Dec-13 03:33N 51°21' E 004°16'0 0.0
2014-Dec-13 02:33N 51°21' E 004°16'0 0.0
2014-Dec-13 01:33N 51°21' E 004°16'0 0.0
2014-Dec-13 00:33N 51°21' E 004°16'0 0.0
2014-Dec-12 23:33N 51°21' E 004°16'0 0.0
2014-Dec-12 22:33N 51°21' E 004°16'0 0.0
2014-Dec-12 21:33N 51°21' E 004°16'0 0.0
2014-Dec-12 20:33N 51°20' E 004°16'0 0.0
2014-Dec-12 19:33N 51°21' E 004°16'0 0.0
2014-Dec-12 18:33N 51°21' E 004°16'  
Track history (hours):
 
Tides and Currents Weather Stations Pressure Air Temp Water Temp Dewpoint Dewpoint Depression Visibility Wind Speed Wind Dir Waves Ship Positions

St. Louis Express

Owner: Marine Transport Management, Inc C/O Crowley Ship Management, Jacksonville, FL. More information available from US FCC via Universal Licensing System.

Last reported at 2014-Dec-22 18:00 UTC. Time now 2014-Dec-22 20:37 UTC.
Position N 35°12' W 044°48'.

Type: Ship (hazmat cat D). MMSI: 367136680.

Wind from 290 at 8 knots

Waves 1.0 meters (3 feet), 2 second period

Barometer 1015.0 mb
Air temperature 21.0 ° C
Visibility: greater than 10.8 NM
Dewpoint 16.1 ° C
Water temperature 23.0 ° C

Date/timePositionNaut miles runAvg speedWind from/ knotsBaromVisibWave heightAir tempDewpointWater temp
2014-Dec-22 18:00N 35°12' W 044°48'4019.8 290 / 81015.010.8 1.021.016.123.0
2014-Dec-22 16:00N 35°18' W 044°00'18718.7 280 / 141016.610.8 1.020.016.721.0
2014-Dec-22 06:00N 35°36' W 040°12'44218.0 300 / 121018.510.8 0.520.016.721.0
2014-Dec-21 05:27N 38°11' W 031°34'2220.1
2014-Dec-21 04:23N 38°25' W 031°13'614.0
2014-Dec-21 04:00N 38°24' W 031°06'1529.2 160 / 201030.510.8 1.017.013.519.0
2014-Dec-21 03:28N 38°36' W 030°54'1820.0
2014-Dec-21 02:33N 38°48' W 030°36'2019.9
2014-Dec-21 01:33N 39°00' W 030°16'2019.5
2014-Dec-21 00:33N 39°13' W 029°57'2019.6
2014-Dec-20 23:33N 39°22' W 029°35'2019.9
2014-Dec-20 22:33N 39°32' W 029°12'2020.2
2014-Dec-20 21:33N 39°42' W 028°49'2020.1
2014-Dec-20 20:33N 39°52' W 028°26'2020.3
2014-Dec-20 19:33N 40°02' W 028°04'3824.6
2014-Dec-20 18:00N 40°18' W 027°18'5518.2 090 / 101036.010.8 1.016.012.417.0
2014-Dec-20 15:00N 40°48' W 026°18'21119.2 200 / 151036.510.8 1.017.013.517.0
2014-Dec-20 04:00N 42°24' W 022°06'23718.2 270 / 181034.2 5.4 1.015.015.015.0
2014-Dec-19 15:00N 44°06' W 017°12'1010.5 270 / 221030.0 2.2 1.515.015.015.0
2014-Dec-19 14:00N 44°12' W 017°00'71016.7 270 / 251029.6 5.4 1.515.015.015.0
2014-Dec-17 19:33N 50°14' W 002°01'2319.4
2014-Dec-17 18:23N 50°23' W 001°28'1618.7
2014-Dec-17 17:33N 50°29' W 001°06'1313.5
2014-Dec-17 16:33N 50°41' W 000°57'1414.3
2014-Dec-17 15:34N 50°47' W 001°18'8 8.1
2014-Dec-17 14:33N 50°54' W 001°25'2 2.3
2014-Dec-17 13:32N 50°55' W 001°28'0 0.0
2014-Dec-17 12:32N 50°55' W 001°28'0 0.0
2014-Dec-17 11:32N 50°55' W 001°28'0 0.0
2014-Dec-17 10:32N 50°55' W 001°28'0 0.0
2014-Dec-17 09:32N 50°55' W 001°28'0 0.0
2014-Dec-17 08:32N 50°55' W 001°28'0 0.0
2014-Dec-17 07:32N 50°55' W 001°28'0 0.0
2014-Dec-17 06:32N 50°55' W 001°28'0 0.0
2014-Dec-17 05:32N 50°55' W 001°28'0 0.0
2014-Dec-17 04:32N 50°55' W 001°28'0 0.0
2014-Dec-17 03:32N 50°55' W 001°28'0 0.0
2014-Dec-17 02:32N 50°55' W 001°28'0 0.0
2014-Dec-17 01:32N 50°55' W 001°28'0 0.0
2014-Dec-17 00:32N 50°55' W 001°28'1 0.7
2014-Dec-16 23:33N 50°54' W 001°27'6 6.0
2014-Dec-16 22:33N 50°50' W 001°19'1111.1
2014-Dec-16 21:33N 50°44' W 001°05'9 8.6
2014-Dec-16 20:34N 50°39' W 000°54'1716.5
2014-Dec-16 19:33N 50°34' W 000°29'2121.0
2014-Dec-16 18:33N 50°33' E 000°04'2120.8
2014-Dec-16 17:33N 50°38' E 000°36'2120.6
2014-Dec-16 16:33N 50°48' E 001°04'2121.1
2014-Dec-16 15:33N 51°02' E 001°29'2222.2
2014-Dec-16 14:33N 51°19' E 001°52'2121.4
2014-Dec-16 13:33N 51°37' E 002°12'10019.9
2014-Dec-16 08:33N 52°54' E 003°53'2019.8
2014-Dec-16 07:33N 53°08' E 004°18'2319.9
2014-Dec-16 06:23N 53°28' E 004°37'1720.0
2014-Dec-16 05:33N 53°34' E 005°03'2019.9
2014-Dec-16 04:33N 53°41' E 005°34'2019.5
2014-Dec-16 03:32N 53°48' E 006°06'5718.8
2014-Dec-16 00:31N 53°59' E 007°40'1313.3
2014-Dec-15 23:33N 53°52' E 007°58'1717.2
2014-Dec-15 22:34N 53°41' E 008°21'9 8.6
2014-Dec-15 21:33N 53°35' E 008°32'0 0.0
2014-Dec-15 20:32N 53°35' E 008°32'0 0.0
2014-Dec-15 19:32N 53°35' E 008°32'0 0.0
2014-Dec-15 18:32N 53°35' E 008°32'0 0.0
2014-Dec-15 17:32N 53°35' E 008°32'0 0.0
2014-Dec-15 16:32N 53°35' E 008°32'0 0.0
2014-Dec-15 15:32N 53°35' E 008°32'0 0.0
2014-Dec-15 14:32N 53°35' E 008°32'0 0.0
2014-Dec-15 13:32N 53°35' E 008°32'0 0.0
2014-Dec-15 12:32N 53°35' E 008°32'0 0.0
2014-Dec-15 11:32N 53°35' E 008°32'0 0.0
2014-Dec-15 10:32N 53°35' E 008°32'0 0.0
2014-Dec-15 09:32N 53°35' E 008°32'0 0.0
2014-Dec-15 08:32N 53°35' E 008°32'0 0.0
2014-Dec-15 07:32N 53°35' E 008°32'0 0.0
2014-Dec-15 06:32N 53°35' E 008°32'0 0.0
2014-Dec-15 05:32N 53°35' E 008°32'0 0.0
2014-Dec-15 04:32N 53°35' E 008°32'0 0.0
2014-Dec-15 03:32N 53°35' E 008°32'0 0.1
2014-Dec-15 02:32N 53°35' E 008°32'0 0.1
2014-Dec-15 01:32N 53°35' E 008°32'0 0.0
2014-Dec-15 00:32N 53°35' E 008°32'0 0.0
2014-Dec-14 23:32N 53°35' E 008°32'0 0.0
2014-Dec-14 22:32N 53°35' E 008°32'0 0.0
2014-Dec-14 21:32N 53°35' E 008°32'0 0.0
2014-Dec-14 20:32N 53°35' E 008°32'0 0.0
2014-Dec-14 19:32N 53°35' E 008°32'0 0.0
2014-Dec-14 18:32N 53°35' E 008°32'4 3.8
2014-Dec-14 17:34N 53°38' E 008°27'1615.6
2014-Dec-14 16:33N 53°48' E 008°08'1413.7
2014-Dec-14 15:33N 53°53' E 007°46'2 2.4
2014-Dec-14 14:33N 53°52' E 007°42'4 3.7
2014-Dec-14 13:33N 53°54' E 007°36'2914.6
2014-Dec-14 11:32N 53°48' E 006°48'2121.8
2014-Dec-14 10:33N 53°43' E 006°12'2221.8
2014-Dec-14 09:34N 53°37' E 005°37'2221.8
2014-Dec-14 08:33N 53°29' E 005°03'2120.8
2014-Dec-14 07:33N 53°16' E 004°36'2121.6
2014-Dec-14 06:34N 52°57' E 004°19'2121.1
2014-Dec-14 05:34N 52°40' E 003°59'2121.2
2014-Dec-14 04:33N 52°25' E 003°34'2121.0
2014-Dec-14 03:32N 52°09' E 003°11'1919.2
2014-Dec-14 02:32N 51°50' E 003°05'1413.9
2014-Dec-14 01:33N 51°37' E 003°11'1313.4
2014-Dec-14 00:34N 51°25' E 003°03'1818.0
2014-Dec-13 23:33N 51°25' E 003°32'1111.3
2014-Dec-13 22:34N 51°21' E 003°48'1010.5
2014-Dec-13 21:33N 51°22' E 004°05'7 7.4
2014-Dec-13 20:33N 51°21' E 004°16'0 0.0
2014-Dec-13 19:33N 51°21' E 004°16'0 0.0
2014-Dec-13 18:33N 51°21' E 004°16'0 0.0
2014-Dec-13 17:33N 51°21' E 004°16'0 0.0
2014-Dec-13 16:33N 51°21' E 004°16'0 0.0
2014-Dec-13 15:34N 51°21' E 004°16'0 0.0
2014-Dec-13 14:33N 51°21' E 004°16'0 0.0
2014-Dec-13 13:33N 51°21' E 004°16'0 0.0
2014-Dec-13 12:33N 51°20' E 004°16'0 0.0
2014-Dec-13 11:33N 51°21' E 004°16'0 0.0
2014-Dec-13 10:34N 51°21' E 004°16'0 0.0
2014-Dec-13 09:34N 51°21' E 004°16'0 0.0
2014-Dec-13 08:33N 51°21' E 004°16'0 0.0
2014-Dec-13 07:33N 51°21' E 004°16'0 0.0
2014-Dec-13 06:33N 51°21' E 004°16'0 0.0
2014-Dec-13 05:33N 51°21' E 004°16'0 0.0
2014-Dec-13 04:33N 51°21' E 004°16'0 0.0
2014-Dec-13 03:33N 51°21' E 004°16'0 0.0
2014-Dec-13 02:33N 51°21' E 004°16'0 0.0
2014-Dec-13 01:33N 51°21' E 004°16'0 0.0
2014-Dec-13 00:33N 51°21' E 004°16'0 0.0
2014-Dec-12 23:33N 51°21' E 004°16'0 0.0
2014-Dec-12 22:33N 51°21' E 004°16'0 0.0
2014-Dec-12 21:33N 51°21' E 004°16'0 0.0
2014-Dec-12 20:33N 51°20' E 004°16'0 0.0
2014-Dec-12 19:33N 51°21' E 004°16'0 0.0
2014-Dec-12 18:33N 51°21' E 004°16'  

Dump ship's entire track history